Time;durP1;ratioP1;P1;durP2;ratioP2;P2;SDS_P1;SDS_P2;PMS_P1;PMS_P2;Temp;Humidity;BMP_temperature;BMP_pressure;BME280_temperature;BME280_humidity;BME280_pressure;Samples;Min_cycle;Max_cycle;Signal;HPM_P1;HPM_P2
2023/04/25 00:03:12;;;;;;;9.88;6.30;;;;;;;10.50;72.71;99645.84;10418586;28;20073;-57
2023/04/25 00:08:14;;;;;;;13.73;7.15;;;;;;;10.55;72.59;99637.22;10420457;28;20132;-58
2023/04/25 00:13:17;;;;;;;13.13;6.68;;;;;;;10.48;73.13;99645.19;10425570;28;20045;-58
2023/04/25 00:18:19;;;;;;;13.30;7.25;;;;;;;10.58;73.01;99644.03;10416034;28;20048;-58
2023/04/25 00:23:21;;;;;;;13.32;7.22;;;;;;;10.69;72.48;99643.53;10418068;28;20122;-57
2023/04/25 00:28:22;;;;;;;24.27;9.02;;;;;;;10.78;72.66;99657.66;10417260;28;20147;-57
2023/04/25 00:33:24;;;;;;;13.38;6.60;;;;;;;10.79;72.51;99654.75;10418338;28;20073;-58
2023/04/25 00:38:25;;;;;;;11.13;6.45;;;;;;;10.81;72.71;99643.81;10422555;28;20099;-57
2023/04/25 00:43:30;;;;;;;10.43;6.57;;;;;;;10.80;72.87;99637.63;10416039;28;20049;-56
2023/04/25 00:48:31;;;;;;;10.32;6.45;;;;;;;10.78;72.76;99646.88;10419348;28;20109;-58
2023/04/25 00:53:33;;;;;;;15.82;7.47;;;;;;;10.79;73.04;99638.63;10424062;28;20049;-57
2023/04/25 00:58:34;;;;;;;12.13;7.35;;;;;;;10.76;72.80;99628.25;10424043;28;20091;-58
2023/04/25 01:03:42;;;;;;;14.30;7.65;;;;;;;10.68;73.39;99636.47;10418093;28;20037;-55
2023/04/25 01:08:44;;;;;;;14.32;6.95;;;;;;;10.75;73.14;99631.16;10431368;28;20049;-55
2023/04/25 01:13:46;;;;;;;11.10;6.45;;;;;;;10.68;73.17;99634.63;10426726;28;20110;-56
2023/04/25 01:18:48;;;;;;;11.18;6.60;;;;;;;10.63;73.11;99634.38;10419619;28;20053;-56
2023/04/25 01:23:49;;;;;;;10.57;6.40;;;;;;;10.62;73.21;99637.25;10423520;28;20127;-58
2023/04/25 01:28:52;;;;;;;12.25;6.13;;;;;;;10.65;72.88;99628.81;10425112;28;20044;-56
2023/04/25 01:33:53;;;;;;;10.60;6.20;;;;;;;10.58;73.22;99618.00;10402009;28;20049;-56
2023/04/25 01:38:55;;;;;;;8.15;4.78;;;;;;;10.40;73.20;99628.38;10402589;28;20049;-56
2023/04/25 01:43:56;;;;;;;9.93;5.32;;;;;;;10.33;73.06;99628.34;10422326;28;20041;-56
2023/04/25 01:48:58;;;;;;;6.82;3.90;;;;;;;10.36;72.14;99653.97;10422818;28;20420;-57
2023/04/25 01:54:00;;;;;;;10.00;4.78;;;;;;;10.15;72.52;99646.69;10427910;28;20068;-57
2023/04/25 01:59:01;;;;;;;7.93;4.55;;;;;;;10.09;72.41;99648.28;10425982;28;20088;-56
2023/04/25 02:04:03;;;;;;;11.80;5.43;;;;;;;10.22;71.71;99640.38;10424216;28;20114;-56
2023/04/25 02:09:05;;;;;;;10.55;5.32;;;;;;;10.26;71.22;99651.56;10410482;28;20446;-57
2023/04/25 02:14:06;;;;;;;8.50;5.07;;;;;;;10.24;70.95;99650.94;10426377;28;20076;-56
2023/04/25 02:19:07;;;;;;;11.00;5.47;;;;;;;10.19;70.79;99639.91;10425573;28;20045;-55
2023/04/25 02:24:09;;;;;;;13.10;6.15;;;;;;;10.23;70.71;99643.88;10424128;28;20053;-56
2023/04/25 02:29:10;;;;;;;14.95;6.00;;;;;;;10.40;69.72;99637.25;10424244;28;20053;-56
2023/04/25 02:34:12;;;;;;;10.48;5.15;;;;;;;10.33;70.03;99639.06;10403785;28;20069;-56
2023/04/25 02:39:13;;;;;;;11.65;4.95;;;;;;;10.22;70.16;99636.84;10422071;28;20126;-56
2023/04/25 02:44:14;;;;;;;13.52;5.95;;;;;;;10.25;69.90;99641.88;10424184;28;20053;-56
2023/04/25 02:49:16;;;;;;;9.85;6.00;;;;;;;10.30;69.75;99642.13;10420938;28;20191;-56
2023/04/25 02:54:17;;;;;;;11.75;5.80;;;;;;;10.31;69.94;99641.94;10419633;28;20076;-56
2023/04/25 02:59:19;;;;;;;12.10;5.93;;;;;;;10.44;69.99;99633.16;10420891;28;20045;-56
2023/04/25 03:04:23;;;;;;;11.10;6.40;;;;;;;10.50;70.13;99634.25;10424703;28;20052;-57
2023/04/25 03:09:25;;;;;;;12.60;5.93;;;;;;;10.49;70.20;99641.50;10418942;28;20048;-55
2023/04/25 03:14:26;;;;;;;12.07;5.40;;;;;;;10.42;69.88;99643.28;10417111;28;20045;-56
2023/04/25 03:19:27;;;;;;;10.85;5.28;;;;;;;10.44;70.10;99641.22;10424061;28;20136;-56
2023/04/25 03:24:29;;;;;;;13.13;5.53;;;;;;;10.31;69.99;99646.50;10421175;28;20167;-57
2023/04/25 03:29:30;;;;;;;12.80;4.93;;;;;;;10.29;69.80;99646.66;10386704;28;20129;-56
2023/04/25 03:34:32;;;;;;;7.43;4.18;;;;;;;10.12;70.03;99643.38;10414187;28;20145;-56
2023/04/25 03:39:33;;;;;;;13.15;4.55;;;;;;;10.05;69.84;99653.22;10403863;28;20094;-57
2023/04/25 03:44:34;;;;;;;8.57;3.90;;;;;;;9.98;69.77;99652.31;10421935;28;20048;-56
2023/04/25 03:49:36;;;;;;;8.90;4.07;;;;;;;9.91;69.07;99664.81;10426743;28;20487;-56
2023/04/25 03:54:38;;;;;;;9.27;3.22;;;;;;;9.76;69.10;99667.53;10414840;28;20055;-56
2023/04/25 03:59:39;;;;;;;15.68;3.95;;;;;;;9.65;68.68;99674.19;10417316;28;20577;-56
2023/04/25 04:04:41;;;;;;;11.00;3.78;;;;;;;9.60;68.59;99673.13;10419412;28;20041;-57
2023/04/25 04:09:43;;;;;;;8.52;3.58;;;;;;;9.50;68.37;99674.22;10403093;28;20053;-57
2023/04/25 04:14:44;;;;;;;11.43;4.05;;;;;;;9.56;67.66;99677.16;10440585;28;20041;-60
2023/04/25 04:19:45;;;;;;;15.10;4.20;;;;;;;9.48;67.60;99695.03;10454241;28;20033;-59
2023/04/25 04:24:47;;;;;;;11.52;4.10;;;;;;;9.37;68.13;99705.41;10445203;28;20649;-59
2023/04/25 04:29:50;;;;;;;9.00;3.10;;;;;;;9.29;67.96;99709.00;10447108;28;20064;-59
2023/04/25 04:34:52;;;;;;;9.23;3.63;;;;;;;9.29;67.64;99701.78;10454491;28;20124;-59
2023/04/25 04:39:53;;;;;;;13.57;3.38;;;;;;;9.36;67.50;99714.44;10453651;28;20083;-59
2023/04/25 04:44:54;;;;;;;13.40;3.75;;;;;;;9.39;67.51;99708.72;10457458;28;20045;-59
2023/04/25 04:49:57;;;;;;;11.88;4.72;;;;;;;9.41;67.17;99715.56;10429772;28;20513;-58
2023/04/25 04:54:58;;;;;;;10.48;4.05;;;;;;;9.43;67.28;99726.13;10424535;28;20125;-58
2023/04/25 05:00:00;;;;;;;10.35;4.28;;;;;;;9.20;67.83;99734.22;10427798;28;20345;-59
2023/04/25 05:05:01;;;;;;;11.45;4.45;;;;;;;9.28;67.14;99751.09;10426483;28;20126;-58
2023/04/25 05:10:03;;;;;;;11.65;4.05;;;;;;;9.21;67.15;99752.00;10426320;28;20080;-58
2023/04/25 05:15:05;;;;;;;10.30;3.88;;;;;;;9.24;67.15;99756.97;10420718;28;20053;-59
2023/04/25 05:20:09;;;;;;;12.45;3.97;;;;;;;9.15;67.17;99750.88;10418262;28;20080;-56
2023/04/25 05:25:10;;;;;;;6.80;3.47;;;;;;;9.30;67.12;99750.88;10426633;28;20088;-59
2023/04/25 05:30:12;;;;;;;12.50;3.63;;;;;;;9.49;66.99;99752.22;10422029;28;20600;-57
2023/04/25 05:35:13;;;;;;;8.57;2.55;;;;;;;9.54;66.54;99752.50;10418957;28;20099;-58
2023/04/25 05:40:15;;;;;;;9.60;3.40;;;;;;;9.41;66.41;99769.22;10420418;28;20049;-59
2023/04/25 05:45:17;;;;;;;8.98;2.72;;;;;;;9.65;66.20;99764.63;10400117;28;20037;-58
2023/04/25 05:50:18;;;;;;;8.95;3.10;;;;;;;9.88;65.41;99762.66;10424102;28;20637;-58
2023/04/25 05:55:20;;;;;;;10.68;3.10;;;;;;;9.96;65.48;99767.13;10421725;28;20483;-60
2023/04/25 06:00:22;;;;;;;5.90;3.47;;;;;;;10.16;65.14;99770.06;10418173;28;20080;-58
2023/04/25 06:05:24;;;;;;;8.75;2.72;;;;;;;10.07;64.90;99768.47;10423911;28;20057;-59
2023/04/25 06:10:26;;;;;;;5.35;1.98;;;;;;;10.13;64.79;99768.59;10426788;28;20108;-59
2023/04/25 06:15:28;;;;;;;5.50;1.33;;;;;;;10.31;64.49;99762.84;10420112;28;20053;-60
2023/04/25 06:20:29;;;;;;;5.60;1.50;;;;;;;10.31;63.77;99765.53;10427506;28;20037;-57
2023/04/25 06:25:31;;;;;;;5.47;1.13;;;;;;;10.35;63.65;99765.97;10423612;28;20045;-58
2023/04/25 06:30:32;;;;;;;3.22;0.98;;;;;;;10.34;63.29;99769.66;10419251;28;20392;-55
2023/04/25 06:35:34;;;;;;;7.97;1.60;;;;;;;10.51;62.90;99767.59;10431150;28;20068;-58
2023/04/25 06:40:35;;;;;;;5.47;1.20;;;;;;;10.59;62.79;99772.84;10417712;28;20056;-58
2023/04/25 06:45:37;;;;;;;5.80;1.13;;;;;;;10.51;62.11;99772.97;10430336;28;20049;-60
2023/04/25 06:50:38;;;;;;;4.97;1.00;;;;;;;10.57;61.41;99777.59;10429560;28;20053;-59
2023/04/25 06:55:40;;;;;;;5.45;1.90;;;;;;;10.55;61.04;99776.94;10432851;28;20036;-59
2023/04/25 07:00:41;;;;;;;4.28;1.20;;;;;;;10.68;60.93;99782.47;10413796;28;20057;-60
2023/04/25 07:05:45;;;;;;;7.15;2.05;;;;;;;11.00;60.36;99795.59;10422069;28;20099;-58
2023/04/25 07:10:47;;;;;;;7.05;1.50;;;;;;;11.22;60.39;99796.44;10426932;28;20045;-58
2023/04/25 07:15:50;;;;;;;7.85;2.67;;;;;;;11.17;59.64;99807.75;10422149;28;20038;-58
2023/04/25 07:20:51;;;;;;;3.50;1.63;;;;;;;11.13;59.31;99806.47;10426634;28;20080;-58
2023/04/25 07:25:53;;;;;;;9.73;1.88;;;;;;;11.37;59.28;99810.59;10418671;28;20124;-60
2023/04/25 07:30:54;;;;;;;5.47;1.83;;;;;;;11.63;58.65;99796.53;10424889;28;20079;-58
2023/04/25 07:35:56;;;;;;;9.15;1.83;;;;;;;11.68;58.45;99796.75;10428596;28;20049;-58
2023/04/25 07:40:57;;;;;;;5.93;1.38;;;;;;;12.03;58.01;99809.44;10426096;28;20041;-57
2023/04/25 07:45:59;;;;;;;3.95;1.20;;;;;;;12.03;57.67;99818.34;10425673;28;20044;-62
2023/04/25 07:51:00;;;;;;;3.40;1.48;;;;;;;12.31;56.67;99825.53;10427176;28;20049;-58
2023/04/25 07:56:02;;;;;;;3.22;1.20;;;;;;;12.39;55.98;99827.25;10401084;28;20726;-59
2023/04/25 08:01:03;;;;;;;3.22;1.38;;;;;;;12.26;55.59;99836.94;10426067;28;20052;-60
2023/04/25 08:06:05;;;;;;;5.32;2.38;;;;;;;12.41;54.92;99831.38;10408020;28;20041;-58
2023/04/25 08:11:09;;;;;;;3.00;1.48;;;;;;;12.30;54.19;99840.88;10420230;28;20135;-58
2023/04/25 08:16:10;;;;;;;7.68;1.75;;;;;;;12.44;54.13;99855.25;10419542;28;20046;-59
2023/04/25 08:21:12;;;;;;;6.75;2.15;;;;;;;12.73;54.11;99855.16;10417551;28;20048;-59
2023/04/25 08:26:13;;;;;;;5.10;2.05;;;;;;;12.83;53.87;99855.59;10412506;28;20128;-60
2023/04/25 08:31:14;;;;;;;4.30;2.03;;;;;;;12.61;53.36;99857.59;10416054;28;20045;-59
2023/04/25 08:36:17;;;;;;;5.63;1.63;;;;;;;12.52;53.38;99869.59;10413629;28;20045;-60
2023/04/25 08:41:40;;;;;;;4.05;2.13;;;;;;;12.63;52.81;99867.16;10421836;28;20471;-62
2023/04/25 08:46:42;;;;;;;6.18;2.25;;;;;;;12.75;52.03;99866.56;10414531;28;20128;-59
2023/04/25 08:51:46;;;;;;;3.88;1.88;;;;;;;12.68;52.16;99863.88;10414687;28;20037;-59
2023/04/25 08:56:48;;;;;;;4.32;1.60;;;;;;;12.30;51.50;99883.16;10421419;28;20523;-58
2023/04/25 09:01:51;;;;;;;5.80;1.60;;;;;;;12.44;50.58;99879.53;10421027;28;20436;-61
2023/04/25 09:06:52;;;;;;;7.53;2.50;;;;;;;12.49;50.45;99898.59;10419292;28;20095;-58
2023/04/25 09:11:54;;;;;;;4.88;2.30;;;;;;;12.69;50.29;99895.19;10419201;28;20052;-58
2023/04/25 09:16:55;;;;;;;3.78;2.15;;;;;;;12.87;50.30;99900.00;10425988;28;20037;-60
2023/04/25 09:21:59;;;;;;;3.05;2.60;;;;;;;12.94;50.48;99905.44;10425964;28;20049;-58
2023/04/25 09:27:03;;;;;;;5.78;3.40;;;;;;;12.82;49.42;99911.41;10426098;28;20049;-59
2023/04/25 09:32:24;;;;;;;6.50;2.33;;;;;;;13.37;48.77;99913.25;10423264;28;20091;-59
2023/04/25 09:37:30;;;;;;;5.72;2.17;;;;;;;13.19;48.37;99919.19;10421564;28;20072;-59
2023/04/25 09:42:34;;;;;;;2.42;1.65;;;;;;;12.95;46.88;99917.88;10428180;28;20045;-61
2023/04/25 09:47:37;;;;;;;4.82;1.33;;;;;;;13.44;46.26;99919.50;10433711;28;20041;-59
2023/04/25 09:52:39;;;;;;;3.50;1.13;;;;;;;13.58;46.04;99925.75;10429947;28;20044;-59
2023/04/25 09:57:41;;;;;;;4.68;1.60;;;;;;;13.55;45.81;99928.88;10431276;28;20049;-60
2023/04/25 10:02:46;;;;;;;6.55;1.80;;;;;;;13.62;45.00;99937.81;10428981;28;20419;-58
2023/04/25 10:07:48;;;;;;;2.45;1.35;;;;;;;13.54;45.29;99932.59;10424464;28;20045;-60
2023/04/25 10:12:49;;;;;;;4.68;1.77;;;;;;;13.67;45.21;99944.25;10426168;28;20045;-59
2023/04/25 10:17:51;;;;;;;6.90;2.15;;;;;;;13.69;45.86;99957.56;10422748;28;20550;-59
2023/04/25 10:22:56;;;;;;;2.45;1.60;;;;;;;13.47;47.08;99967.72;10427030;28;20112;-59
2023/04/25 10:27:59;;;;;;;6.53;1.50;;;;;;;13.29;47.51;99979.91;10427782;28;20050;-61
2023/04/25 10:33:00;;;;;;;4.07;1.55;;;;;;;13.19;47.90;99983.97;10428712;28;20090;-59
2023/04/25 10:38:09;;;;;;;3.83;1.70;;;;;;;13.24;47.73;99993.13;10424944;28;20084;-59
2023/04/25 10:43:40;;;;;;;5.55;1.25;;;;;;;13.28;47.52;99983.59;10428085;28;20041;-58
2023/04/25 10:48:50;;;;;;;9.85;1.77;;;;;;;13.26;47.82;99993.75;10415211;28;20136;-59
2023/04/25 10:53:55;;;;;;;1.92;1.13;;;;;;;13.37;47.25;99991.53;10426186;28;20072;-58
2023/04/25 10:59:11;;;;;;;2.90;1.35;;;;;;;13.72;46.80;99989.53;10426542;28;20045;-61
2023/04/25 11:04:30;;;;;;;4.70;1.00;;;;;;;13.28;46.37;99991.69;10406991;28;20436;-60
2023/04/25 11:09:34;;;;;;;3.92;1.25;;;;;;;12.87;46.13;100002.53;10409376;28;20134;-59
2023/04/25 11:14:36;;;;;;;3.47;0.93;;;;;;;13.02;46.04;99994.31;10425887;28;20049;-59
2023/04/25 11:19:37;;;;;;;3.40;0.95;;;;;;;13.35;45.55;99989.06;10417643;28;20613;-59
2023/04/25 11:24:39;;;;;;;2.97;1.08;;;;;;;13.53;45.20;99984.97;10415408;28;20076;-59
2023/04/25 11:29:40;;;;;;;2.88;0.90;;;;;;;14.07;44.42;99986.66;10419274;28;20053;-59
2023/04/25 11:34:45;;;;;;;5.72;1.00;;;;;;;14.09;42.69;99979.19;10409939;28;20267;-61
2023/04/25 11:39:47;;;;;;;3.75;0.90;;;;;;;13.99;41.49;99987.72;10423123;28;20145;-59
2023/04/25 11:44:48;;;;;;;2.60;1.33;;;;;;;14.00;40.88;100002.03;10424996;28;20049;-60
2023/04/25 11:49:53;;;;;;;2.15;1.23;;;;;;;13.89;40.07;99998.09;10419070;28;20041;-59
2023/04/25 11:54:56;;;;;;;2.28;0.50;;;;;;;13.93;40.40;100004.75;10416250;28;20060;-59
2023/04/25 12:00:07;;;;;;;2.88;1.00;;;;;;;13.74;40.63;100013.66;10417829;28;20428;-60
2023/04/25 12:05:09;;;;;;;4.95;1.08;;;;;;;13.57;40.95;100024.84;10420221;28;20069;-60
2023/04/25 12:10:31;;;;;;;8.18;0.77;;;;;;;13.30;41.49;100037.41;10417360;28;20529;-61
2023/04/25 12:15:33;;;;;;;3.03;1.00;;;;;;;13.21;42.05;100038.59;10424963;28;20077;-61
2023/04/25 12:20:35;;;;;;;6.45;1.52;;;;;;;13.11;42.56;100041.66;10418849;28;20667;-61
2023/04/25 12:25:41;;;;;;;2.55;0.90;;;;;;;13.05;42.43;100042.47;10416299;28;20065;-60
2023/04/25 12:31:04;;;;;;;4.47;1.17;;;;;;;13.12;42.95;100037.09;10417700;28;20465;-60
2023/04/25 12:36:10;;;;;;;4.70;1.13;;;;;;;12.94;43.01;100045.75;10412415;28;20132;-60
2023/04/25 12:41:12;;;;;;;6.97;1.27;;;;;;;13.51;42.92;100033.78;10417351;28;20041;-61
2023/04/25 12:46:13;;;;;;;9.85;1.15;;;;;;;14.17;41.96;100035.75;10417382;28;20365;-62
2023/04/25 12:51:15;;;;;;;4.65;0.90;;;;;;;14.24;40.95;100036.59;10427373;28;20049;-61
2023/04/25 12:56:16;;;;;;;1.35;0.60;;;;;;;14.85;40.03;100032.81;10425113;28;20053;-61
2023/04/25 13:01:17;;;;;;;3.17;0.65;;;;;;;14.48;39.72;100037.00;10430984;28;20061;-61
2023/04/25 13:06:20;;;;;;;4.50;1.20;;;;;;;14.58;39.94;100032.00;10428120;28;20060;-61
2023/04/25 13:11:21;;;;;;;4.78;1.08;;;;;;;14.33;39.50;100049.88;10427139;28;20065;-61
2023/04/25 13:16:23;;;;;;;4.82;0.90;;;;;;;14.22;39.28;100051.34;10421054;28;20072;-60
2023/04/25 13:21:25;;;;;;;3.55;0.80;;;;;;;14.05;39.84;100042.81;10428085;28;20073;-62
2023/04/25 13:26:26;;;;;;;4.05;1.02;;;;;;;14.10;39.55;100048.44;10426635;28;20095;-61
2023/04/25 13:31:28;;;;;;;2.72;1.08;;;;;;;13.99;39.10;100054.44;10426034;28;20131;-61
2023/04/25 13:36:29;;;;;;;4.13;0.68;;;;;;;14.24;39.01;100047.41;10422724;28;20049;-61
2023/04/25 13:41:30;;;;;;;2.65;1.20;;;;;;;14.48;38.53;100058.63;10427076;28;20118;-61
2023/04/25 13:46:32;;;;;;;10.88;0.90;;;;;;;14.14;38.47;100052.38;10426733;28;20049;-60
2023/04/25 13:51:47;;;;;;;1.80;0.70;;;;;;;14.60;38.53;100051.56;10423326;28;20049;-62
2023/04/25 13:56:50;;;;;;;4.75;1.67;;;;;;;15.10;37.98;100061.88;10423684;28;20044;-61
2023/04/25 14:01:51;;;;;;;6.90;0.98;;;;;;;15.30;37.67;100050.16;10424608;28;20045;-61
2023/04/25 14:06:53;;;;;;;1.35;0.80;;;;;;;15.62;37.07;100056.44;10425945;28;20051;-62
2023/04/25 14:11:55;;;;;;;1.80;0.80;;;;;;;15.51;35.40;100060.69;10424061;28;20482;-61
2023/04/25 14:16:57;;;;;;;3.08;0.75;;;;;;;14.67;33.64;100070.50;10424181;28;20040;-61
2023/04/25 14:21:58;;;;;;;3.90;1.00;;;;;;;14.74;33.94;100063.22;10420557;28;20104;-61
2023/04/25 14:27:00;;;;;;;5.93;0.60;;;;;;;15.03;34.28;100059.19;10421087;28;20084;-61
2023/04/25 14:32:02;;;;;;;4.05;0.68;;;;;;;15.51;34.11;100066.09;10424459;28;20072;-62
2023/04/25 14:37:03;;;;;;;2.75;0.77;;;;;;;15.13;34.04;100080.41;10421798;28;20041;-61
2023/04/25 14:42:05;;;;;;;2.95;0.50;;;;;;;14.87;34.25;100074.03;10419911;28;20087;-62
2023/04/25 14:47:06;;;;;;;3.97;0.57;;;;;;;14.67;35.07;100086.72;10406321;28;20048;-61
2023/04/25 14:52:08;;;;;;;6.03;0.60;;;;;;;14.41;35.37;100091.06;10425573;28;20072;-60
2023/04/25 14:57:09;;;;;;;6.15;0.60;;;;;;;14.42;35.96;100095.44;10419567;28;20071;-61
2023/04/25 15:02:11;;;;;;;4.07;0.55;;;;;;;14.23;35.65;100107.91;10424402;28;20061;-61
2023/04/25 15:07:12;;;;;;;1.88;1.15;;;;;;;14.09;34.96;100111.63;10422325;28;20095;-61
2023/04/25 15:12:14;;;;;;;3.50;0.60;;;;;;;13.89;34.94;100109.72;10419082;28;20072;-61
2023/04/25 15:17:15;;;;;;;2.25;0.40;;;;;;;13.85;35.04;100118.44;10421066;28;20116;-61
2023/04/25 15:22:17;;;;;;;2.60;0.55;;;;;;;13.94;34.94;100122.63;10420261;28;20045;-60
2023/04/25 15:27:18;;;;;;;2.92;0.93;;;;;;;14.05;35.33;100115.78;10420418;28;20049;-61
2023/04/25 15:32:20;;;;;;;3.10;0.40;;;;;;;14.75;34.97;100126.25;10419021;28;20484;-61
2023/04/25 15:37:22;;;;;;;2.90;0.50;;;;;;;14.64;35.56;100120.44;10423271;28;20047;-61
2023/04/25 15:42:23;;;;;;;3.38;1.15;;;;;;;15.16;35.25;100108.94;10421286;28;20440;-60
2023/04/25 15:47:26;;;;;;;2.90;0.50;;;;;;;15.80;33.99;100104.56;10419227;28;20707;-61
2023/04/25 15:52:27;;;;;;;3.35;0.60;;;;;;;15.18;34.57;100114.97;10414529;28;20064;-60
2023/04/25 15:57:29;;;;;;;1.67;0.50;;;;;;;15.34;33.64;100105.53;10414660;28;20460;-60
2023/04/25 16:02:31;;;;;;;4.00;0.50;;;;;;;14.66;33.43;100114.84;10419381;28;20068;-62
2023/04/25 16:07:32;;;;;;;5.25;0.60;;;;;;;15.22;33.28;100110.78;10418341;28;20033;-61
2023/04/25 16:12:35;;;;;;;6.68;0.57;;;;;;;14.94;33.57;100116.47;10414470;28;20120;-61
2023/04/25 16:17:36;;;;;;;3.97;0.47;;;;;;;15.30;33.57;100117.84;10415407;28;20059;-60
2023/04/25 16:22:39;;;;;;;2.67;0.50;;;;;;;15.50;33.64;100117.78;10415249;28;20099;-56
2023/04/25 16:27:40;;;;;;;4.63;0.60;;;;;;;15.60;33.90;100116.28;10405084;28;20559;-57
2023/04/25 16:32:42;;;;;;;4.82;0.73;;;;;;;15.56;34.68;100130.47;10420065;28;20704;-59
2023/04/25 16:37:46;;;;;;;3.30;0.65;;;;;;;15.44;34.40;100138.44;10426147;28;20303;-56
2023/04/25 16:42:48;;;;;;;3.88;0.60;;;;;;;15.52;34.43;100140.06;10420941;28;20029;-56
2023/04/25 16:47:49;;;;;;;2.80;0.40;;;;;;;15.37;33.83;100132.22;10399976;28;20397;-56
2023/04/25 16:52:50;;;;;;;1.88;0.70;;;;;;;15.72;33.78;100130.00;10418874;28;20503;-61
2023/04/25 16:57:52;;;;;;;3.15;0.57;;;;;;;15.55;33.84;100134.25;10418729;28;20053;-60
2023/04/25 17:02:53;;;;;;;2.33;0.40;;;;;;;15.96;33.66;100141.19;10424750;28;20418;-61
2023/04/25 17:07:55;;;;;;;2.90;0.50;;;;;;;15.75;33.88;100153.16;10423069;28;20397;-60
2023/04/25 17:12:57;;;;;;;6.63;1.38;;;;;;;15.58;34.41;100155.47;10420859;28;20048;-61
2023/04/25 17:17:59;;;;;;;2.50;0.50;;;;;;;15.33;34.54;100166.19;10428093;28;20431;-61
2023/04/25 17:23:01;;;;;;;2.95;0.57;;;;;;;14.60;35.08;100165.19;10427770;28;20132;-61
2023/04/25 17:28:02;;;;;;;4.38;0.90;;;;;;;14.83;34.70;100170.19;10422522;28;20247;-60
2023/04/25 17:33:05;;;;;;;5.45;0.73;;;;;;;14.72;34.63;100170.81;10422996;28;20041;-60
2023/04/25 17:38:07;;;;;;;2.78;0.85;;;;;;;14.73;34.20;100171.63;10401074;28;20036;-61
2023/04/25 17:43:08;;;;;;;3.20;0.45;;;;;;;14.78;34.29;100179.97;10417779;28;20076;-62
2023/04/25 17:48:10;;;;;;;2.40;1.02;;;;;;;14.63;34.26;100191.84;10421789;28;20431;-61
2023/04/25 17:53:11;;;;;;;1.92;0.50;;;;;;;14.57;34.67;100197.22;10424694;28;20119;-61
2023/04/25 17:58:13;;;;;;;3.88;0.60;;;;;;;14.60;34.59;100202.25;10420829;28;20498;-61
2023/04/25 18:03:15;;;;;;;6.00;0.70;;;;;;;14.16;35.06;100209.81;10419839;28;20086;-61
2023/04/25 18:08:16;;;;;;;5.35;0.70;;;;;;;13.76;35.98;100228.53;10422708;28;20060;-61
2023/04/25 18:13:18;;;;;;;6.10;1.55;;;;;;;13.83;35.97;100231.28;10421378;28;20108;-62
2023/04/25 18:18:24;;;;;;;1.20;0.47;;;;;;;13.16;36.84;100238.91;10426407;28;20057;-62
2023/04/25 18:23:26;;;;;;;2.45;0.55;;;;;;;12.69;37.58;100243.91;10406084;28;20107;-61
2023/04/25 18:28:28;;;;;;;7.05;0.38;;;;;;;12.41;38.28;100243.81;10420671;28;20048;-61
2023/04/25 18:33:30;;;;;;;5.55;0.40;;;;;;;11.99;39.28;100258.88;10403718;28;20037;-61
2023/04/25 18:38:31;;;;;;;3.90;1.23;;;;;;;11.71;39.90;100259.50;10419430;28;20064;-61
2023/04/25 18:43:36;;;;;;;1.42;0.60;;;;;;;11.59;39.82;100263.69;10426494;28;20053;-59
2023/04/25 18:48:37;;;;;;;6.05;0.52;;;;;;;11.43;40.07;100275.47;10432633;28;20041;-59
2023/04/25 18:53:40;;;;;;;4.32;0.60;;;;;;;11.23;40.60;100277.81;10434496;28;20049;-59
2023/04/25 18:58:41;;;;;;;2.53;0.43;;;;;;;11.19;40.67;100295.34;10430430;28;20056;-57
2023/04/25 19:03:43;;;;;;;3.05;0.50;;;;;;;11.11;41.09;100293.56;10424300;28;20079;-57
2023/04/25 19:08:45;;;;;;;1.00;0.40;;;;;;;10.94;41.29;100299.25;10425707;28;20041;-58
2023/04/25 19:13:50;;;;;;;1.88;0.50;;;;;;;10.87;41.53;100299.97;10422875;28;20076;-57
2023/04/25 19:18:53;;;;;;;3.05;0.60;;;;;;;10.75;42.02;100314.84;10426046;28;20492;-58
2023/04/25 19:23:55;;;;;;;3.25;0.60;;;;;;;10.79;41.60;100305.41;10424934;28;20049;-57
2023/04/25 19:29:08;;;;;;;2.88;0.77;;;;;;;10.61;42.28;100311.06;10428508;28;20052;-57
2023/04/25 19:34:11;;;;;;;3.95;0.82;;;;;;;10.38;42.84;100316.41;10430718;28;20084;-57
2023/04/25 19:39:13;;;;;;;3.08;1.02;;;;;;;10.35;42.92;100322.13;10425548;28;20060;-58
2023/04/25 19:44:14;;;;;;;7.97;0.60;;;;;;;10.36;42.45;100331.03;10432365;28;20186;-56
2023/04/25 19:49:16;;;;;;;1.90;0.57;;;;;;;10.36;42.27;100339.09;10428744;28;20144;-56
2023/04/25 19:54:17;;;;;;;7.03;0.63;;;;;;;10.26;42.53;100332.03;10430103;28;20041;-55
2023/04/25 19:59:19;;;;;;;3.97;0.60;;;;;;;10.25;42.67;100329.53;10429390;28;20045;-58
2023/04/25 20:04:20;;;;;;;2.85;0.50;;;;;;;10.30;42.54;100329.88;10430701;28;20484;-56
2023/04/25 20:09:22;;;;;;;3.30;0.50;;;;;;;10.28;42.69;100330.00;10431583;28;20051;-57
2023/04/25 20:14:23;;;;;;;4.03;0.40;;;;;;;10.24;42.82;100343.97;10430815;28;20045;-58
2023/04/25 20:19:24;;;;;;;12.00;3.22;;;;;;;10.24;42.84;100349.34;10432033;28;20380;-57
2023/04/25 20:24:26;;;;;;;2.00;0.50;;;;;;;10.22;43.02;100349.50;10438034;28;20045;-57
2023/04/25 20:29:27;;;;;;;3.45;0.45;;;;;;;10.30;42.73;100359.44;10433944;28;20052;-58
2023/04/25 20:34:30;;;;;;;5.32;0.50;;;;;;;10.08;43.65;100358.31;10434326;28;20694;-57
2023/04/25 20:39:32;;;;;;;6.00;0.50;;;;;;;10.01;43.76;100350.09;10434740;28;20045;-58
2023/04/25 20:44:33;;;;;;;4.57;0.55;;;;;;;9.99;43.83;100354.81;10434718;28;20049;-57
2023/04/25 20:49:35;;;;;;;2.42;1.08;;;;;;;9.97;43.65;100355.97;10437856;28;20053;-59
2023/04/25 20:54:37;;;;;;;2.33;0.50;;;;;;;9.98;43.75;100365.72;10438787;28;20519;-57
2023/04/25 20:59:38;;;;;;;1.40;0.65;;;;;;;10.00;44.18;100369.06;10425546;28;20049;-58
2023/04/25 21:04:41;;;;;;;1.27;0.60;;;;;;;9.98;44.28;100371.91;10440513;28;20052;-57
2023/04/25 21:09:44;;;;;;;2.03;0.52;;;;;;;9.89;44.87;100370.25;10438546;28;20049;-57
2023/04/25 21:14:45;;;;;;;5.40;1.15;;;;;;;9.76;45.39;100369.97;10443316;28;20563;-58
2023/04/25 21:19:46;;;;;;;2.50;0.70;;;;;;;9.68;45.86;100379.69;10428087;28;20052;-58
2023/04/25 21:24:49;;;;;;;5.30;2.00;;;;;;;9.60;45.95;100381.56;10440983;28;20651;-58
2023/04/25 21:29:50;;;;;;;4.15;0.73;;;;;;;9.51;46.64;100383.38;10439161;28;20136;-58
2023/04/25 21:34:52;;;;;;;3.55;0.70;;;;;;;9.38;47.03;100381.22;10450778;28;20044;-58
2023/04/25 21:39:53;;;;;;;6.43;1.08;;;;;;;9.25;47.21;100379.03;10447817;28;20053;-58
2023/04/25 21:44:55;;;;;;;3.35;0.60;;;;;;;9.22;46.93;100383.88;10444336;28;20121;-57
2023/04/25 21:49:56;;;;;;;1.73;0.55;;;;;;;9.16;47.91;100369.28;10436961;28;20061;-59
2023/04/25 21:54:59;;;;;;;3.30;0.60;;;;;;;9.00;47.97;100367.41;10435894;28;20064;-59
2023/04/25 22:00:03;;;;;;;5.05;1.15;;;;;;;8.91;48.31;100381.84;10456784;28;20046;-60
2023/04/25 22:05:05;;;;;;;3.00;0.63;;;;;;;8.87;48.50;100391.22;10456296;28;20045;-60
2023/04/25 22:10:07;;;;;;;4.68;1.33;;;;;;;8.72;49.04;100394.50;10451787;28;20095;-60
2023/04/25 22:15:09;;;;;;;3.45;1.15;;;;;;;8.69;48.93;100397.53;10455246;28;20118;-59
2023/04/25 22:20:12;;;;;;;5.53;1.15;;;;;;;8.67;48.74;100402.22;10453667;28;20053;-60
2023/04/25 22:25:14;;;;;;;2.85;0.90;;;;;;;8.65;49.36;100411.38;10430808;28;20103;-60
2023/04/25 22:30:15;;;;;;;2.78;1.42;;;;;;;8.60;48.97;100419.94;10433583;28;20037;-60
2023/04/25 22:35:18;;;;;;;4.85;0.82;;;;;;;8.54;49.61;100428.59;10446286;28;20076;-59
2023/04/25 22:40:19;;;;;;;2.25;0.80;;;;;;;8.46;49.57;100434.75;10454130;28;20041;-59
2023/04/25 22:45:20;;;;;;;5.25;1.33;;;;;;;8.41;50.11;100430.84;10450264;28;20099;-59
2023/04/25 22:50:22;;;;;;;2.30;1.10;;;;;;;8.40;50.34;100438.06;10449769;28;20056;-59
2023/04/25 22:55:25;;;;;;;5.15;2.15;;;;;;;8.42;50.69;100443.28;10457702;28;20448;-59
2023/04/25 23:00:29;;;;;;;3.30;1.92;;;;;;;8.38;50.88;100447.25;10455213;28;20048;-60
2023/04/25 23:05:31;;;;;;;3.13;1.05;;;;;;;8.34;50.97;100450.25;10455435;28;20250;-60
2023/04/25 23:10:33;;;;;;;4.25;1.48;;;;;;;8.32;51.38;100452.25;10430072;28;20099;-61
2023/04/25 23:15:34;;;;;;;5.25;1.95;;;;;;;8.30;51.51;100456.09;10455962;28;20533;-59
2023/04/25 23:20:36;;;;;;;5.80;1.25;;;;;;;8.28;52.40;100463.44;10452925;28;20046;-60